sensor_id;sensor_type;location;lat;lon;timestamp;P1;durP1;ratioP1;P2;durP2;ratioP2
49710;SDS011;35602;44.534;18.696;2022-08-11T00:03:47;9.18;;;8.27;;
49710;SDS011;35602;44.534;18.696;2022-08-11T00:08:57;9.63;;;8.63;;
49710;SDS011;35602;44.534;18.696;2022-08-11T00:13:58;8.77;;;7.97;;
49710;SDS011;35602;44.534;18.696;2022-08-11T00:19:00;9.32;;;8.43;;
49710;SDS011;35602;44.534;18.696;2022-08-11T00:24:05;8.68;;;7.78;;
49710;SDS011;35602;44.534;18.696;2022-08-11T00:29:07;8.90;;;8.00;;
49710;SDS011;35602;44.534;18.696;2022-08-11T00:34:09;8.90;;;8.10;;
49710;SDS011;35602;44.534;18.696;2022-08-11T00:39:11;8.50;;;7.70;;
49710;SDS011;35602;44.534;18.696;2022-08-11T00:44:18;9.77;;;7.53;;
49710;SDS011;35602;44.534;18.696;2022-08-11T00:50:46;8.55;;;7.75;;
49710;SDS011;35602;44.534;18.696;2022-08-11T00:56:25;8.25;;;7.40;;
49710;SDS011;35602;44.534;18.696;2022-08-11T01:02:10;8.73;;;7.82;;
49710;SDS011;35602;44.534;18.696;2022-08-11T01:36:38;8.55;;;7.72;;
49710;SDS011;35602;44.534;18.696;2022-08-11T01:54:26;7.95;;;7.22;;
49710;SDS011;35602;44.534;18.696;2022-08-11T01:59:35;7.85;;;7.05;;
49710;SDS011;35602;44.534;18.696;2022-08-11T02:14:01;8.13;;;7.32;;
49710;SDS011;35602;44.534;18.696;2022-08-11T02:19:32;7.78;;;7.05;;
49710;SDS011;35602;44.534;18.696;2022-08-11T02:25:36;7.50;;;6.70;;
49710;SDS011;35602;44.534;18.696;2022-08-11T02:30:57;7.82;;;7.07;;
49710;SDS011;35602;44.534;18.696;2022-08-11T02:37:14;7.75;;;7.05;;
49710;SDS011;35602;44.534;18.696;2022-08-11T02:55:09;6.65;;;6.05;;
49710;SDS011;35602;44.534;18.696;2022-08-11T03:00:26;7.10;;;6.50;;
49710;SDS011;35602;44.534;18.696;2022-08-11T03:05:32;7.68;;;6.57;;
49710;SDS011;35602;44.534;18.696;2022-08-11T03:13:55;6.95;;;6.25;;
49710;SDS011;35602;44.534;18.696;2022-08-11T03:21:23;7.78;;;6.97;;
49710;SDS011;35602;44.534;18.696;2022-08-11T03:26:35;8.05;;;7.25;;
49710;SDS011;35602;44.534;18.696;2022-08-11T03:31:58;7.10;;;6.40;;
49710;SDS011;35602;44.534;18.696;2022-08-11T03:38:44;6.55;;;6.00;;
49710;SDS011;35602;44.534;18.696;2022-08-11T03:44:24;7.35;;;6.45;;
49710;SDS011;35602;44.534;18.696;2022-08-11T04:00:06;6.80;;;6.10;;
49710;SDS011;35602;44.534;18.696;2022-08-11T04:06:58;7.30;;;6.60;;
49710;SDS011;35602;44.534;18.696;2022-08-11T04:22:30;8.15;;;6.07;;
49710;SDS011;35602;44.534;18.696;2022-08-11T04:33:32;8.45;;;6.82;;
49710;SDS011;35602;44.534;18.696;2022-08-11T04:53:59;7.30;;;5.85;;
49710;SDS011;35602;44.534;18.696;2022-08-11T05:14:11;7.78;;;6.70;;
49710;SDS011;35602;44.534;18.696;2022-08-11T05:19:47;10.13;;;7.50;;
49710;SDS011;35602;44.534;18.696;2022-08-11T05:25:11;8.57;;;7.72;;
49710;SDS011;35602;44.534;18.696;2022-08-11T05:30:34;8.23;;;7.22;;
49710;SDS011;35602;44.534;18.696;2022-08-11T05:36:11;8.38;;;7.40;;
49710;SDS011;35602;44.534;18.696;2022-08-11T05:41:18;9.55;;;7.80;;
49710;SDS011;35602;44.534;18.696;2022-08-11T05:46:42;9.80;;;8.15;;
49710;SDS011;35602;44.534;18.696;2022-08-11T05:52:02;10.55;;;7.80;;
49710;SDS011;35602;44.534;18.696;2022-08-11T05:57:22;9.02;;;7.80;;
49710;SDS011;35602;44.534;18.696;2022-08-11T06:02:30;11.02;;;8.35;;
49710;SDS011;35602;44.534;18.696;2022-08-11T06:07:31;11.40;;;9.30;;
49710;SDS011;35602;44.534;18.696;2022-08-11T06:12:33;10.90;;;8.63;;
49710;SDS011;35602;44.534;18.696;2022-08-11T06:17:42;11.12;;;9.15;;
49710;SDS011;35602;44.534;18.696;2022-08-11T06:22:45;11.65;;;9.98;;
49710;SDS011;35602;44.534;18.696;2022-08-11T06:27:54;13.05;;;9.68;;
49710;SDS011;35602;44.534;18.696;2022-08-11T06:32:55;14.10;;;9.85;;
49710;SDS011;35602;44.534;18.696;2022-08-11T06:38:10;16.35;;;11.45;;
49710;SDS011;35602;44.534;18.696;2022-08-11T06:44:56;13.30;;;10.80;;
49710;SDS011;35602;44.534;18.696;2022-08-11T06:50:07;13.10;;;10.65;;
49710;SDS011;35602;44.534;18.696;2022-08-11T06:55:27;15.80;;;11.52;;
49710;SDS011;35602;44.534;18.696;2022-08-11T07:00:48;14.98;;;11.73;;
49710;SDS011;35602;44.534;18.696;2022-08-11T07:06:14;12.90;;;11.02;;
49710;SDS011;35602;44.534;18.696;2022-08-11T07:11:59;14.77;;;11.75;;
49710;SDS011;35602;44.534;18.696;2022-08-11T07:17:44;16.23;;;12.30;;
49710;SDS011;35602;44.534;18.696;2022-08-11T07:28:02;22.13;;;16.45;;
49710;SDS011;35602;44.534;18.696;2022-08-11T07:33:28;22.80;;;18.10;;
49710;SDS011;35602;44.534;18.696;2022-08-11T07:38:40;25.88;;;19.27;;
49710;SDS011;35602;44.534;18.696;2022-08-11T07:43:44;31.27;;;22.15;;
49710;SDS011;35602;44.534;18.696;2022-08-11T07:48:48;31.45;;;23.02;;
49710;SDS011;35602;44.534;18.696;2022-08-11T07:54:08;33.03;;;22.73;;
49710;SDS011;35602;44.534;18.696;2022-08-11T07:59:11;34.60;;;24.27;;
49710;SDS011;35602;44.534;18.696;2022-08-11T08:04:31;34.83;;;24.27;;
49710;SDS011;35602;44.534;18.696;2022-08-11T08:09:52;40.92;;;26.12;;
49710;SDS011;35602;44.534;18.696;2022-08-11T08:15:11;39.17;;;25.65;;
49710;SDS011;35602;44.534;18.696;2022-08-11T08:20:39;39.78;;;26.62;;
49710;SDS011;35602;44.534;18.696;2022-08-11T08:25:44;40.12;;;26.62;;
49710;SDS011;35602;44.534;18.696;2022-08-11T08:30:46;38.85;;;26.30;;
49710;SDS011;35602;44.534;18.696;2022-08-11T08:35:51;42.88;;;26.37;;
49710;SDS011;35602;44.534;18.696;2022-08-11T08:41:23;45.40;;;27.10;;
49710;SDS011;35602;44.534;18.696;2022-08-11T08:46:30;43.60;;;27.95;;
49710;SDS011;35602;44.534;18.696;2022-08-11T08:51:36;45.25;;;27.85;;
49710;SDS011;35602;44.534;18.696;2022-08-11T08:56:39;42.55;;;27.37;;
49710;SDS011;35602;44.534;18.696;2022-08-11T09:01:54;44.58;;;26.98;;
49710;SDS011;35602;44.534;18.696;2022-08-11T09:06:59;43.03;;;26.75;;
49710;SDS011;35602;44.534;18.696;2022-08-11T09:12:08;41.40;;;27.67;;
49710;SDS011;35602;44.534;18.696;2022-08-11T09:17:11;39.33;;;27.92;;
49710;SDS011;35602;44.534;18.696;2022-08-11T09:22:17;43.30;;;28.35;;
49710;SDS011;35602;44.534;18.696;2022-08-11T09:27:37;43.90;;;29.25;;
49710;SDS011;35602;44.534;18.696;2022-08-11T09:32:38;41.83;;;28.08;;
49710;SDS011;35602;44.534;18.696;2022-08-11T09:37:41;44.83;;;29.80;;
49710;SDS011;35602;44.534;18.696;2022-08-11T09:43:01;80.87;;;41.42;;
49710;SDS011;35602;44.534;18.696;2022-08-11T09:48:24;66.25;;;37.78;;
49710;SDS011;35602;44.534;18.696;2022-08-11T09:53:29;62.22;;;34.38;;
49710;SDS011;35602;44.534;18.696;2022-08-11T09:58:32;45.73;;;29.93;;
49710;SDS011;35602;44.534;18.696;2022-08-11T10:03:34;38.28;;;23.30;;
49710;SDS011;35602;44.534;18.696;2022-08-11T10:08:40;29.33;;;17.87;;
49710;SDS011;35602;44.534;18.696;2022-08-11T10:13:43;23.55;;;14.90;;
49710;SDS011;35602;44.534;18.696;2022-08-11T10:19:04;26.30;;;14.87;;
49710;SDS011;35602;44.534;18.696;2022-08-11T10:24:06;19.92;;;14.20;;
49710;SDS011;35602;44.534;18.696;2022-08-11T10:29:29;21.70;;;14.57;;
49710;SDS011;35602;44.534;18.696;2022-08-11T10:34:50;22.17;;;14.98;;
49710;SDS011;35602;44.534;18.696;2022-08-11T10:39:51;22.75;;;15.10;;
49710;SDS011;35602;44.534;18.696;2022-08-11T10:44:55;23.80;;;16.98;;
49710;SDS011;35602;44.534;18.696;2022-08-11T10:49:58;24.60;;;16.58;;
49710;SDS011;35602;44.534;18.696;2022-08-11T10:55:17;21.92;;;16.08;;
49710;SDS011;35602;44.534;18.696;2022-08-11T11:00:37;24.20;;;15.70;;
49710;SDS011;35602;44.534;18.696;2022-08-11T11:05:38;21.45;;;15.90;;
49710;SDS011;35602;44.534;18.696;2022-08-11T11:10:40;22.80;;;16.05;;
49710;SDS011;35602;44.534;18.696;2022-08-11T11:15:44;25.30;;;17.20;;
49710;SDS011;35602;44.534;18.696;2022-08-11T11:21:05;21.12;;;15.15;;
49710;SDS011;35602;44.534;18.696;2022-08-11T11:26:22;19.98;;;16.25;;
49710;SDS011;35602;44.534;18.696;2022-08-11T11:35:20;22.60;;;15.85;;
49710;SDS011;35602;44.534;18.696;2022-08-11T11:40:35;21.15;;;15.48;;
49710;SDS011;35602;44.534;18.696;2022-08-11T11:45:37;15.98;;;11.12;;
49710;SDS011;35602;44.534;18.696;2022-08-11T11:50:41;12.57;;;8.68;;
49710;SDS011;35602;44.534;18.696;2022-08-11T11:55:43;12.60;;;9.43;;
49710;SDS011;35602;44.534;18.696;2022-08-11T12:00:44;11.77;;;9.85;;
49710;SDS011;35602;44.534;18.696;2022-08-11T12:06:05;15.68;;;10.55;;
49710;SDS011;35602;44.534;18.696;2022-08-11T12:11:08;15.88;;;10.52;;
49710;SDS011;35602;44.534;18.696;2022-08-11T12:16:29;14.20;;;11.52;;
49710;SDS011;35602;44.534;18.696;2022-08-11T12:21:30;15.30;;;11.80;;
49710;SDS011;35602;44.534;18.696;2022-08-11T12:26:33;17.30;;;13.05;;
49710;SDS011;35602;44.534;18.696;2022-08-11T12:33:06;19.12;;;15.60;;
49710;SDS011;35602;44.534;18.696;2022-08-11T12:38:07;16.87;;;14.32;;
49710;SDS011;35602;44.534;18.696;2022-08-11T12:43:11;17.90;;;13.77;;
49710;SDS011;35602;44.534;18.696;2022-08-11T12:48:35;17.10;;;13.73;;
49710;SDS011;35602;44.534;18.696;2022-08-11T12:54:15;18.27;;;12.55;;
49710;SDS011;35602;44.534;18.696;2022-08-11T12:59:22;21.50;;;13.32;;
49710;SDS011;35602;44.534;18.696;2022-08-11T13:04:42;17.12;;;12.45;;
49710;SDS011;35602;44.534;18.696;2022-08-11T13:09:55;15.60;;;12.32;;
49710;SDS011;35602;44.534;18.696;2022-08-11T13:14:57;15.63;;;12.20;;
49710;SDS011;35602;44.534;18.696;2022-08-11T13:20:00;13.05;;;11.65;;
49710;SDS011;35602;44.534;18.696;2022-08-11T13:25:02;16.37;;;12.20;;
49710;SDS011;35602;44.534;18.696;2022-08-11T13:30:05;14.10;;;11.98;;
49710;SDS011;35602;44.534;18.696;2022-08-11T13:37:44;14.18;;;12.20;;
49710;SDS011;35602;44.534;18.696;2022-08-11T13:42:46;13.65;;;11.77;;
49710;SDS011;35602;44.534;18.696;2022-08-11T13:47:48;13.55;;;12.15;;
49710;SDS011;35602;44.534;18.696;2022-08-11T13:52:54;15.57;;;12.50;;
49710;SDS011;35602;44.534;18.696;2022-08-11T13:57:55;14.57;;;12.23;;
49710;SDS011;35602;44.534;18.696;2022-08-11T14:02:56;15.00;;;12.20;;
49710;SDS011;35602;44.534;18.696;2022-08-11T14:07:59;12.82;;;11.55;;
49710;SDS011;35602;44.534;18.696;2022-08-11T14:13:11;13.45;;;11.18;;
49710;SDS011;35602;44.534;18.696;2022-08-11T14:18:33;15.13;;;12.23;;
49710;SDS011;35602;44.534;18.696;2022-08-11T14:23:43;13.63;;;11.87;;
49710;SDS011;35602;44.534;18.696;2022-08-11T14:28:46;14.57;;;11.90;;
49710;SDS011;35602;44.534;18.696;2022-08-11T14:33:48;13.52;;;11.48;;
49710;SDS011;35602;44.534;18.696;2022-08-11T14:38:51;15.48;;;11.57;;
49710;SDS011;35602;44.534;18.696;2022-08-11T14:43:54;13.15;;;11.43;;
49710;SDS011;35602;44.534;18.696;2022-08-11T14:49:15;14.75;;;11.10;;
49710;SDS011;35602;44.534;18.696;2022-08-11T14:54:17;12.73;;;11.38;;
49710;SDS011;35602;44.534;18.696;2022-08-11T14:59:37;12.52;;;10.65;;
49710;SDS011;35602;44.534;18.696;2022-08-11T15:04:38;12.65;;;10.80;;
49710;SDS011;35602;44.534;18.696;2022-08-11T15:09:40;12.07;;;10.85;;
49710;SDS011;35602;44.534;18.696;2022-08-11T15:14:43;13.07;;;11.63;;
49710;SDS011;35602;44.534;18.696;2022-08-11T15:20:06;11.88;;;10.73;;
49710;SDS011;35602;44.534;18.696;2022-08-11T15:25:28;12.02;;;10.82;;
49710;SDS011;35602;44.534;18.696;2022-08-11T15:30:33;12.35;;;10.38;;
49710;SDS011;35602;44.534;18.696;2022-08-11T15:35:54;13.02;;;11.70;;
49710;SDS011;35602;44.534;18.696;2022-08-11T15:41:15;13.73;;;10.52;;
49710;SDS011;35602;44.534;18.696;2022-08-11T15:46:41;11.52;;;10.30;;
49710;SDS011;35602;44.534;18.696;2022-08-11T15:51:49;11.43;;;10.32;;
49710;SDS011;35602;44.534;18.696;2022-08-11T15:57:05;11.95;;;10.25;;
49710;SDS011;35602;44.534;18.696;2022-08-11T16:02:07;12.48;;;11.10;;
49710;SDS011;35602;44.534;18.696;2022-08-11T16:07:31;12.07;;;10.27;;
49710;SDS011;35602;44.534;18.696;2022-08-11T16:12:34;11.98;;;10.55;;
49710;SDS011;35602;44.534;18.696;2022-08-11T16:17:40;11.82;;;10.60;;
49710;SDS011;35602;44.534;18.696;2022-08-11T16:22:45;12.00;;;9.90;;
49710;SDS011;35602;44.534;18.696;2022-08-11T16:27:54;11.32;;;10.13;;
49710;SDS011;35602;44.534;18.696;2022-08-11T16:33:07;10.93;;;9.82;;
49710;SDS011;35602;44.534;18.696;2022-08-11T16:38:10;10.23;;;9.13;;
49710;SDS011;35602;44.534;18.696;2022-08-11T16:43:32;11.20;;;10.02;;
49710;SDS011;35602;44.534;18.696;2022-08-11T16:48:55;11.02;;;9.65;;
49710;SDS011;35602;44.534;18.696;2022-08-11T16:53:59;11.15;;;9.93;;
49710;SDS011;35602;44.534;18.696;2022-08-11T16:59:01;10.52;;;9.43;;
49710;SDS011;35602;44.534;18.696;2022-08-11T17:10:25;11.35;;;10.15;;
49710;SDS011;35602;44.534;18.696;2022-08-11T17:15:48;11.60;;;9.95;;
49710;SDS011;35602;44.534;18.696;2022-08-11T17:21:06;10.95;;;9.85;;
49710;SDS011;35602;44.534;18.696;2022-08-11T17:26:36;11.40;;;10.23;;
49710;SDS011;35602;44.534;18.696;2022-08-11T17:31:58;11.32;;;9.43;;
49710;SDS011;35602;44.534;18.696;2022-08-11T17:37:20;10.02;;;9.10;;
49710;SDS011;35602;44.534;18.696;2022-08-11T17:42:23;10.25;;;9.15;;
49710;SDS011;35602;44.534;18.696;2022-08-11T17:47:45;10.73;;;9.63;;
49710;SDS011;35602;44.534;18.696;2022-08-11T17:53:05;10.45;;;9.35;;
49710;SDS011;35602;44.534;18.696;2022-08-11T17:58:25;10.73;;;9.73;;
49710;SDS011;35602;44.534;18.696;2022-08-11T18:03:45;10.85;;;9.75;;
49710;SDS011;35602;44.534;18.696;2022-08-11T18:08:49;10.15;;;9.13;;
49710;SDS011;35602;44.534;18.696;2022-08-11T18:14:09;10.27;;;9.27;;
49710;SDS011;35602;44.534;18.696;2022-08-11T18:19:30;10.43;;;9.32;;
49710;SDS011;35602;44.534;18.696;2022-08-11T18:24:50;11.00;;;9.40;;
49710;SDS011;35602;44.534;18.696;2022-08-11T18:30:16;9.77;;;8.77;;
49710;SDS011;35602;44.534;18.696;2022-08-11T18:35:36;10.55;;;9.45;;
49710;SDS011;35602;44.534;18.696;2022-08-11T18:40:57;10.65;;;9.55;;
49710;SDS011;35602;44.534;18.696;2022-08-11T18:46:18;11.02;;;9.93;;
49710;SDS011;35602;44.534;18.696;2022-08-11T18:51:40;12.80;;;10.68;;
49710;SDS011;35602;44.534;18.696;2022-08-11T18:57:05;13.02;;;10.80;;
49710;SDS011;35602;44.534;18.696;2022-08-11T19:02:25;12.20;;;11.00;;
49710;SDS011;35602;44.534;18.696;2022-08-11T19:07:46;12.05;;;10.73;;
49710;SDS011;35602;44.534;18.696;2022-08-11T19:13:07;11.38;;;10.18;;
49710;SDS011;35602;44.534;18.696;2022-08-11T19:18:28;12.88;;;10.68;;
49710;SDS011;35602;44.534;18.696;2022-08-11T19:23:50;13.23;;;10.48;;
49710;SDS011;35602;44.534;18.696;2022-08-11T19:29:13;11.80;;;9.98;;
49710;SDS011;35602;44.534;18.696;2022-08-11T19:34:34;12.25;;;10.43;;
49710;SDS011;35602;44.534;18.696;2022-08-11T19:39:57;13.38;;;10.93;;
49710;SDS011;35602;44.534;18.696;2022-08-11T19:45:19;12.97;;;10.47;;
49710;SDS011;35602;44.534;18.696;2022-08-11T19:50:39;12.18;;;10.88;;
49710;SDS011;35602;44.534;18.696;2022-08-11T19:56:03;14.15;;;11.10;;
49710;SDS011;35602;44.534;18.696;2022-08-11T20:01:23;12.50;;;10.73;;
49710;SDS011;35602;44.534;18.696;2022-08-11T20:06:42;11.75;;;10.27;;
49710;SDS011;35602;44.534;18.696;2022-08-11T20:12:02;13.13;;;10.85;;
49710;SDS011;35602;44.534;18.696;2022-08-11T20:17:23;13.48;;;10.77;;
49710;SDS011;35602;44.534;18.696;2022-08-11T20:22:44;11.88;;;9.85;;
49710;SDS011;35602;44.534;18.696;2022-08-11T20:28:05;11.98;;;10.20;;
49710;SDS011;35602;44.534;18.696;2022-08-11T20:33:25;11.80;;;10.25;;
49710;SDS011;35602;44.534;18.696;2022-08-11T20:38:44;11.73;;;9.85;;
49710;SDS011;35602;44.534;18.696;2022-08-11T20:44:06;11.30;;;10.13;;
49710;SDS011;35602;44.534;18.696;2022-08-11T20:49:26;13.50;;;10.40;;
49710;SDS011;35602;44.534;18.696;2022-08-11T20:54:49;12.82;;;10.55;;
49710;SDS011;35602;44.534;18.696;2022-08-11T21:00:08;11.57;;;10.18;;
49710;SDS011;35602;44.534;18.696;2022-08-11T21:05:33;12.05;;;9.68;;
49710;SDS011;35602;44.534;18.696;2022-08-11T21:10:53;10.10;;;9.00;;
49710;SDS011;35602;44.534;18.696;2022-08-11T21:16:18;11.27;;;9.27;;
49710;SDS011;35602;44.534;18.696;2022-08-11T21:22:17;11.25;;;9.15;;
49710;SDS011;35602;44.534;18.696;2022-08-11T21:27:39;9.85;;;8.77;;
49710;SDS011;35602;44.534;18.696;2022-08-11T21:33:00;9.98;;;8.98;;
49710;SDS011;35602;44.534;18.696;2022-08-11T21:38:20;10.27;;;8.65;;
49710;SDS011;35602;44.534;18.696;2022-08-11T21:43:40;10.68;;;8.65;;
49710;SDS011;35602;44.534;18.696;2022-08-11T21:49:00;10.75;;;8.88;;
49710;SDS011;35602;44.534;18.696;2022-08-11T21:54:21;9.35;;;8.43;;
49710;SDS011;35602;44.534;18.696;2022-08-11T21:59:44;10.00;;;8.98;;
49710;SDS011;35602;44.534;18.696;2022-08-11T22:05:10;9.30;;;8.30;;
49710;SDS011;35602;44.534;18.696;2022-08-11T22:10:32;10.68;;;8.10;;
49710;SDS011;35602;44.534;18.696;2022-08-11T22:15:52;8.82;;;7.85;;
49710;SDS011;35602;44.534;18.696;2022-08-11T22:21:13;10.07;;;8.73;;
49710;SDS011;35602;44.534;18.696;2022-08-11T22:26:35;8.93;;;8.02;;
49710;SDS011;35602;44.534;18.696;2022-08-11T22:31:56;9.40;;;8.15;;
49710;SDS011;35602;44.534;18.696;2022-08-11T22:37:15;9.07;;;7.68;;
49710;SDS011;35602;44.534;18.696;2022-08-11T22:42:37;8.95;;;7.05;;
49710;SDS011;35602;44.534;18.696;2022-08-11T22:47:56;8.68;;;7.78;;
49710;SDS011;35602;44.534;18.696;2022-08-11T22:53:17;8.65;;;7.65;;
49710;SDS011;35602;44.534;18.696;2022-08-11T22:58:38;8.35;;;7.45;;
49710;SDS011;35602;44.534;18.696;2022-08-11T23:03:58;7.80;;;7.03;;
49710;SDS011;35602;44.534;18.696;2022-08-11T23:09:19;8.38;;;7.18;;
49710;SDS011;35602;44.534;18.696;2022-08-11T23:14:39;8.18;;;7.22;;
49710;SDS011;35602;44.534;18.696;2022-08-11T23:20:00;7.78;;;6.85;;
49710;SDS011;35602;44.534;18.696;2022-08-11T23:25:20;7.72;;;6.90;;
49710;SDS011;35602;44.534;18.696;2022-08-11T23:30:40;7.75;;;6.62;;
49710;SDS011;35602;44.534;18.696;2022-08-11T23:36:00;7.60;;;6.45;;
49710;SDS011;35602;44.534;18.696;2022-08-11T23:41:19;7.10;;;6.40;;
49710;SDS011;35602;44.534;18.696;2022-08-11T23:46:39;8.35;;;6.53;;
49710;SDS011;35602;44.534;18.696;2022-08-11T23:51:59;6.72;;;6.07;;
49710;SDS011;35602;44.534;18.696;2022-08-11T23:57:21;7.72;;;6.95;;
